Time;durP1;ratioP1;P1;durP2;ratioP2;P2;SDS_P1;SDS_P2;PMS_P1;PMS_P2;Temp;Humidity;BMP_temperature;BMP_pressure;BME280_temperature;BME280_humidity;BME280_pressure;Samples;Min_cycle;Max_cycle;Signal;HPM_P1;HPM_P2
2021/03/24 00:00:27;;;;;;;13.32;8.60;;;2.20;62.70;;;;;;5118994;28;20204;-70
2021/03/24 00:03:06;;;;;;;15.85;9.18;;;2.10;62.40;;;;;;5111770;27;20199;-71
2021/03/24 00:05:38;;;;;;;19.10;10.13;;;2.10;62.90;;;;;;5115347;28;20317;-71
2021/03/24 00:08:08;;;;;;;15.10;9.45;;;2.20;63.60;;;;;;5111887;28;20216;-71
2021/03/24 00:10:40;;;;;;;17.52;9.77;;;2.10;63.50;;;;;;5115783;28;20658;-71
2021/03/24 00:13:21;;;;;;;14.13;9.25;;;2.20;63.70;;;;;;5111852;28;20192;-71
2021/03/24 00:15:49;;;;;;;17.70;9.40;;;2.20;63.80;;;;;;5116265;28;20194;-71
2021/03/24 00:18:17;;;;;;;14.38;8.70;;;2.20;63.90;;;;;;5112075;28;20192;-71
2021/03/24 00:20:50;;;;;;;14.35;8.10;;;2.30;63.70;;;;;;5113465;28;20188;-70
2021/03/24 00:23:19;;;;;;;14.60;9.65;;;2.30;63.70;;;;;;5121140;27;20231;-70
2021/03/24 00:25:58;;;;;;;18.05;10.10;;;2.30;64.50;;;;;;5128637;27;20215;-71
2021/03/24 00:28:34;;;;;;;15.68;10.73;;;2.30;64.20;;;;;;5136954;27;20262;-70
2021/03/24 00:31:10;;;;;;;12.75;7.90;;;2.20;64.10;;;;;;5136007;27;20192;-70
2021/03/24 00:33:42;;;;;;;16.15;9.15;;;2.20;65.00;;;;;;5136880;27;20199;-70
2021/03/24 00:36:10;;;;;;;14.30;8.93;;;2.10;65.60;;;;;;5136377;27;20190;-70
2021/03/24 00:38:42;;;;;;;14.90;8.73;;;2.10;66.10;;;;;;5136917;27;20630;-70
2021/03/24 00:41:11;;;;;;;13.63;7.93;;;2.10;66.20;;;;;;5136610;27;20638;-70
2021/03/24 00:43:43;;;;;;;15.32;9.15;;;2.20;66.20;;;;;;5136774;27;20184;-70
2021/03/24 00:46:20;;;;;;;18.52;9.50;;;2.10;65.50;;;;;;5136116;27;20674;-70
2021/03/24 00:48:48;;;;;;;12.32;8.50;;;2.00;66.10;;;;;;5136555;27;20211;-70
2021/03/24 00:51:19;;;;;;;15.90;8.80;;;1.90;67.00;;;;;;5136530;27;20321;-71
2021/03/24 00:53:51;;;;;;;18.50;10.63;;;1.80;67.70;;;;;;5136749;27;20192;-70
2021/03/24 00:56:18;;;;;;;17.52;9.68;;;1.80;67.70;;;;;;5135811;27;20183;-70
2021/03/24 00:58:51;;;;;;;15.63;9.43;;;1.80;68.10;;;;;;5136338;27;20191;-70
2021/03/24 01:01:22;;;;;;;15.80;9.57;;;1.90;69.10;;;;;;5135960;27;20180;-70
2021/03/24 01:03:53;;;;;;;25.30;11.18;;;1.90;67.70;;;;;;5135799;27;20192;-69
2021/03/24 01:06:25;;;;;;;16.50;9.68;;;1.90;66.90;;;;;;5136521;27;20547;-71
2021/03/24 01:08:56;;;;;;;17.08;8.68;;;1.80;66.60;;;;;;5135936;27;20230;-71
2021/03/24 01:11:28;;;;;;;19.00;11.57;;;1.80;66.50;;;;;;5135871;27;20214;-71
2021/03/24 01:14:06;;;;;;;17.90;10.23;;;1.80;66.30;;;;;;5136010;27;20218;-71
2021/03/24 01:16:39;;;;;;;15.68;11.15;;;1.90;67.00;;;;;;5136189;27;20191;-71
2021/03/24 01:19:10;;;;;;;16.38;9.05;;;1.90;66.90;;;;;;5135590;27;20195;-71
2021/03/24 01:21:40;;;;;;;15.98;9.45;;;1.90;66.00;;;;;;5135906;27;20184;-71
2021/03/24 01:24:13;;;;;;;14.82;9.93;;;1.80;65.00;;;;;;5135391;27;20190;-71
2021/03/24 01:26:51;;;;;;;13.02;9.45;;;1.80;64.00;;;;;;5136022;27;20264;-70
2021/03/24 01:29:18;;;;;;;15.25;10.93;;;1.80;64.30;;;;;;5135423;27;20207;-70
2021/03/24 01:31:50;;;;;;;13.18;8.27;;;1.70;64.10;;;;;;5135610;27;20184;-71
2021/03/24 01:34:27;;;;;;;13.15;7.68;;;1.80;64.00;;;;;;5134911;27;20261;-71
2021/03/24 01:36:54;;;;;;;15.35;8.88;;;1.80;65.30;;;;;;5135624;27;20224;-71
2021/03/24 01:39:23;;;;;;;16.55;8.93;;;1.70;65.50;;;;;;5135565;27;20215;-71
2021/03/24 01:41:55;;;;;;;18.33;9.02;;;1.70;65.70;;;;;;5135402;27;20188;-70
2021/03/24 01:44:43;;;;;;;12.50;7.85;;;1.70;66.10;;;;;;5135407;27;20191;-71
2021/03/24 01:47:17;;;;;;;14.90;9.13;;;1.70;66.40;;;;;;5135592;27;20188;-70
2021/03/24 01:49:48;;;;;;;15.10;8.38;;;1.70;66.40;;;;;;5134979;27;20230;-70
2021/03/24 01:52:15;;;;;;;15.15;9.05;;;1.70;66.30;;;;;;5115267;28;20313;-71
2021/03/24 01:54:46;;;;;;;14.30;8.88;;;1.70;66.50;;;;;;5130013;27;20194;-71
2021/03/24 01:57:22;;;;;;;13.75;8.30;;;1.60;66.60;;;;;;5135409;27;20224;-70
2021/03/24 01:59:55;;;;;;;15.40;8.27;;;1.70;65.40;;;;;;5134694;27;20187;-71
2021/03/24 02:02:27;;;;;;;17.52;8.35;;;1.60;63.70;;;;;;5135440;27;20268;-70
2021/03/24 02:05:08;;;;;;;17.85;8.80;;;1.60;64.10;;;;;;5134519;27;20195;-70
2021/03/24 02:07:49;;;;;;;13.48;8.73;;;1.70;65.30;;;;;;5135182;27;20180;-71
2021/03/24 02:10:35;;;;;;;16.00;9.27;;;1.70;65.70;;;;;;5134624;27;20263;-70
2021/03/24 02:13:11;;;;;;;16.10;8.65;;;1.70;66.00;;;;;;5135365;27;20199;-71
2021/03/24 02:15:48;;;;;;;14.55;7.97;;;1.70;66.20;;;;;;5134730;27;20191;-70
2021/03/24 02:18:21;;;;;;;11.13;7.45;;;1.70;64.90;;;;;;5135217;27;20183;-71
2021/03/24 02:20:57;;;;;;;12.88;7.20;;;1.70;64.00;;;;;;5134356;27;20220;-71
2021/03/24 02:23:31;;;;;;;12.07;7.45;;;1.60;63.20;;;;;;5135037;27;20621;-71
2021/03/24 02:26:09;;;;;;;15.75;7.88;;;1.60;63.30;;;;;;5114506;28;20192;-70
2021/03/24 02:28:42;;;;;;;16.75;9.02;;;1.50;62.90;;;;;;5114441;27;20231;-71
2021/03/24 02:31:15;;;;;;;13.23;6.97;;;1.40;61.80;;;;;;5134891;27;20192;-70
2021/03/24 02:33:55;;;;;;;10.38;7.03;;;1.30;60.10;;;;;;5134513;27;20234;-70
2021/03/24 02:36:34;;;;;;;11.30;6.78;;;1.20;60.60;;;;;;5134974;27;20614;-71
2021/03/24 02:39:07;;;;;;;12.75;8.25;;;1.20;61.00;;;;;;5134162;27;20646;-71
2021/03/24 02:41:40;;;;;;;12.63;7.20;;;1.20;60.20;;;;;;5134632;27;20195;-70
2021/03/24 02:44:10;;;;;;;9.70;6.90;;;1.10;60.30;;;;;;5134090;27;20285;-70
2021/03/24 02:46:48;;;;;;;14.23;7.95;;;1.00;61.40;;;;;;5132917;27;20554;-70
2021/03/24 02:49:23;;;;;;;14.00;8.00;;;1.00;61.90;;;;;;5134278;27;20218;-70
2021/03/24 02:51:50;;;;;;;14.63;8.35;;;1.00;62.80;;;;;;5133908;27;20554;-71
2021/03/24 02:54:26;;;;;;;16.50;7.82;;;1.00;63.10;;;;;;5134372;27;20192;-70
2021/03/24 02:56:54;;;;;;;14.55;8.32;;;0.90;62.60;;;;;;5134050;27;20270;-70
2021/03/24 02:59:24;;;;;;;14.88;8.05;;;1.00;62.80;;;;;;5133635;27;20176;-71
2021/03/24 03:01:59;;;;;;;15.98;8.43;;;0.90;63.00;;;;;;5134162;27;20589;-70
2021/03/24 03:04:33;;;;;;;13.95;7.13;;;0.90;63.10;;;;;;5133774;27;20191;-71
2021/03/24 03:07:05;;;;;;;14.20;9.20;;;0.80;62.50;;;;;;5134290;27;20198;-70
2021/03/24 03:09:45;;;;;;;14.45;8.40;;;0.80;61.40;;;;;;5133598;27;20218;-70
2021/03/24 03:12:32;;;;;;;12.60;8.25;;;0.80;62.10;;;;;;5134121;27;20191;-71
2021/03/24 03:15:07;;;;;;;11.63;7.85;;;0.70;63.00;;;;;;5133671;27;20588;-70
2021/03/24 03:17:51;;;;;;;11.85;7.05;;;0.70;62.90;;;;;;5134111;27;20187;-70
2021/03/24 03:20:27;;;;;;;13.70;7.85;;;0.60;63.70;;;;;;5132747;27;20626;-70
2021/03/24 03:23:02;;;;;;;11.75;7.47;;;0.60;64.10;;;;;;5133426;27;20977;-70
2021/03/24 03:25:38;;;;;;;15.55;7.97;;;0.60;64.00;;;;;;5133949;27;20223;-70
2021/03/24 03:28:15;;;;;;;15.43;8.20;;;0.60;64.10;;;;;;5133159;27;20239;-70
2021/03/24 03:30:48;;;;;;;11.95;8.45;;;0.60;64.30;;;;;;5133666;27;20274;-70
2021/03/24 03:33:25;;;;;;;17.83;8.60;;;0.60;64.10;;;;;;5133264;27;20195;-71
2021/03/24 03:35:55;;;;;;;12.23;8.30;;;0.50;64.10;;;;;;5133648;27;20555;-70
2021/03/24 03:38:30;;;;;;;11.07;7.38;;;0.50;64.20;;;;;;5132861;27;20179;-70
2021/03/24 03:41:07;;;;;;;12.40;7.25;;;0.40;63.10;;;;;;5133434;27;20191;-70
2021/03/24 03:43:46;;;;;;;15.90;8.32;;;0.40;64.60;;;;;;5133165;27;20656;-70
2021/03/24 03:46:21;;;;;;;14.02;8.57;;;0.40;64.50;;;;;;5133146;27;20215;-70
2021/03/24 03:48:56;;;;;;;13.75;8.25;;;0.40;64.50;;;;;;5132652;27;20322;-70
2021/03/24 03:51:42;;;;;;;14.20;7.90;;;0.50;64.80;;;;;;5132973;27;20194;-70
2021/03/24 03:54:19;;;;;;;15.55;7.88;;;0.50;64.90;;;;;;5112910;28;20191;-70
2021/03/24 03:57:11;;;;;;;14.75;6.32;;;0.50;65.40;;;;;;5118831;28;20180;-70
2021/03/24 03:59:47;;;;;;;12.80;8.68;;;0.50;64.40;;;;;;5132976;27;20664;-70
2021/03/24 04:02:28;;;;;;;12.70;6.65;;;0.50;62.70;;;;;;5133007;27;20554;-70
2021/03/24 04:05:02;;;;;;;12.40;7.00;;;0.40;62.50;;;;;;5133485;27;20198;-70
2021/03/24 04:07:40;;;;;;;12.85;7.18;;;0.40;63.30;;;;;;5132893;27;20188;-71
2021/03/24 04:10:14;;;;;;;11.10;6.72;;;0.40;63.60;;;;;;5133139;27;20293;-70
2021/03/24 04:12:44;;;;;;;10.75;7.63;;;0.40;63.30;;;;;;5132471;27;20540;-71
2021/03/24 04:15:27;;;;;;;11.75;6.80;;;0.40;63.00;;;;;;5133190;27;20191;-71
2021/03/24 04:18:10;;;;;;;11.00;6.05;;;0.40;62.80;;;;;;5132597;27;20195;-70
2021/03/24 04:20:41;;;;;;;12.50;7.00;;;0.40;62.60;;;;;;5133040;27;20190;-70
2021/03/24 04:23:19;;;;;;;12.77;7.88;;;0.30;62.50;;;;;;5133269;27;20195;-70
2021/03/24 04:25:52;;;;;;;12.85;6.50;;;0.30;62.60;;;;;;5132867;27;20183;-70
2021/03/24 04:28:22;;;;;;;11.85;6.78;;;0.30;63.10;;;;;;5132753;27;20245;-71
2021/03/24 04:31:04;;;;;;;14.15;7.65;;;0.20;63.10;;;;;;5132998;27;20267;-70
2021/03/24 04:33:34;;;;;;;12.43;7.78;;;0.30;64.30;;;;;;5132750;27;20575;-70
2021/03/24 04:36:26;;;;;;;15.52;8.15;;;0.20;63.30;;;;;;5133157;27;20191;-71
2021/03/24 04:39:14;;;;;;;13.23;8.20;;;0.20;63.20;;;;;;5132296;27;20180;-71
2021/03/24 04:42:16;;;;;;;13.93;8.30;;;0.20;62.60;;;;;;5132805;27;20524;-71
2021/03/24 04:44:57;;;;;;;17.80;10.02;;;0.10;62.80;;;;;;5132551;27;20183;-71
2021/03/24 04:47:31;;;;;;;20.92;12.30;;;0.10;63.60;;;;;;5132803;27;20200;-70
2021/03/24 04:50:17;;;;;;;14.95;10.15;;;0.10;63.60;;;;;;5132448;27;20220;-70
2021/03/24 04:52:51;;;;;;;22.05;10.70;;;0.10;64.10;;;;;;5133014;27;20550;-70
2021/03/24 04:55:26;;;;;;;20.42;10.45;;;0.00;63.40;;;;;;5132599;27;20275;-71
2021/03/24 04:58:01;;;;;;;19.33;11.55;;;0.00;63.40;;;;;;5132983;27;20195;-70
2021/03/24 05:00:41;;;;;;;16.90;11.23;;;0.00;63.50;;;;;;5112292;28;20192;-70
2021/03/24 05:03:18;;;;;;;15.38;9.05;;;0.00;63.30;;;;;;5113396;28;20210;-71
2021/03/24 05:05:53;;;;;;;14.38;9.90;;;0.00;63.60;;;;;;5132989;27;20649;-71
2021/03/24 05:08:35;;;;;;;12.63;8.20;;;0.00;63.90;;;;;;5132464;27;20276;-71
2021/03/24 05:11:17;;;;;;;14.55;9.65;;;0.10;64.00;;;;;;5135805;27;20234;-71
2021/03/24 05:13:54;;;;;;;17.95;10.73;;;0.00;63.20;;;;;;5136117;27;20643;-70
2021/03/24 05:16:29;;;;;;;18.75;9.25;;;0.00;63.20;;;;;;5115808;28;20283;-71
2021/03/24 05:19:22;;;;;;;14.65;10.00;;;0.00;63.90;;;;;;5123389;27;20706;-70
2021/03/24 05:22:05;;;;;;;16.80;10.13;;;0.00;62.90;;;;;;5133996;27;20279;-70
2021/03/24 05:24:38;;;;;;;14.95;8.35;;;0.00;63.30;;;;;;5115899;28;20203;-71
2021/03/24 05:27:13;;;;;;;11.48;7.07;;;0.00;62.60;;;;;;5135401;27;20658;-71
2021/03/24 05:29:48;;;;;;;14.05;8.65;;;0.00;62.60;;;;;;5135323;27;20275;-70
2021/03/24 05:32:19;;;;;;;12.57;7.95;;;0.00;63.00;;;;;;5135983;27;20187;-70
2021/03/24 05:34:50;;;;;;;17.27;10.27;;;-0.10;63.30;;;;;;5135939;27;20184;-70
2021/03/24 05:37:28;;;;;;;16.20;9.40;;;-0.10;64.00;;;;;;5136396;27;20200;-70
2021/03/24 05:40:09;;;;;;;14.88;8.77;;;-0.10;64.80;;;;;;5135197;27;20224;-70
2021/03/24 05:42:52;;;;;;;13.25;7.75;;;-0.10;64.90;;;;;;5136270;27;20191;-70
2021/03/24 05:45:44;;;;;;;12.90;7.30;;;-0.10;64.40;;;;;;5134490;27;20215;-70
2021/03/24 05:48:48;;;;;;;10.75;6.60;;;-0.10;64.90;;;;;;5135585;27;20227;-70
2021/03/24 05:51:27;;;;;;;15.52;7.35;;;-0.10;65.40;;;;;;5115010;28;20195;-71
2021/03/24 05:54:29;;;;;;;11.55;7.35;;;0.00;66.20;;;;;;5120363;27;20184;-71
2021/03/24 05:57:17;;;;;;;14.63;8.20;;;0.10;66.70;;;;;;5128056;27;20199;-70
2021/03/24 05:59:56;;;;;;;18.05;9.13;;;0.20;66.90;;;;;;5135050;27;20198;-71
2021/03/24 06:02:40;;;;;;;18.65;8.85;;;0.30;68.00;;;;;;5135381;27;20184;-71
2021/03/24 06:05:13;;;;;;;19.40;8.85;;;0.40;68.00;;;;;;5134410;27;20215;-70
2021/03/24 06:08:12;;;;;;;17.00;9.23;;;0.60;68.30;;;;;;5133139;27;20191;-71
2021/03/24 06:11:18;;;;;;;12.35;8.18;;;0.70;68.30;;;;;;5133005;27;20195;-71
2021/03/24 06:14:15;;;;;;;14.00;8.73;;;0.90;68.30;;;;;;5132610;27;20661;-71
2021/03/24 06:17:26;;;;;;;14.30;8.25;;;1.10;69.70;;;;;;5135266;27;20192;-70
2021/03/24 06:20:14;;;;;;;16.45;7.85;;;1.30;69.10;;;;;;5134709;27;20231;-71
2021/03/24 06:23:09;;;;;;;13.32;9.77;;;1.40;69.20;;;;;;5135191;27;20191;-71
2021/03/24 06:25:47;;;;;;;13.85;6.97;;;1.50;69.20;;;;;;5114802;28;20195;-70
2021/03/24 06:28:35;;;;;;;14.00;7.32;;;1.70;69.20;;;;;;5118493;27;20219;-71
2021/03/24 06:31:38;;;;;;;10.25;6.47;;;1.80;69.00;;;;;;5135073;27;20556;-71
2021/03/24 06:34:36;;;;;;;9.90;6.90;;;2.00;69.50;;;;;;5132931;27;20195;-70
2021/03/24 06:37:27;;;;;;;11.43;7.65;;;2.20;69.20;;;;;;5109636;27;20292;-71
2021/03/24 06:40:24;;;;;;;16.50;8.85;;;2.40;69.20;;;;;;5134292;27;20195;-71
2021/03/24 06:43:01;;;;;;;13.82;8.15;;;2.70;68.40;;;;;;5131969;27;20198;-72
2021/03/24 06:45:49;;;;;;;16.88;9.95;;;2.80;67.80;;;;;;5113115;28;20219;-71
2021/03/24 06:48:51;;;;;;;14.25;9.45;;;3.00;67.40;;;;;;5117414;27;20231;-71
2021/03/24 06:51:57;;;;;;;17.13;8.85;;;3.30;66.90;;;;;;5123519;27;20542;-74
2021/03/24 06:54:39;;;;;;;14.05;9.43;;;3.50;65.60;;;;;;5133946;27;20187;-74
2021/03/24 06:57:50;;;;;;;10.30;7.57;;;3.70;64.70;;;;;;5134469;27;20198;-73
2021/03/24 07:00:55;;;;;;;11.95;6.85;;;4.00;66.00;;;;;;5134001;27;20630;-75
2021/03/24 07:04:05;;;;;;;14.43;7.50;;;4.40;65.90;;;;;;5107410;27;20188;-71
2021/03/24 07:06:59;;;;;;;14.25;7.60;;;4.90;64.80;;;;;;5134264;27;20608;-71
2021/03/24 07:09:39;;;;;;;9.52;6.57;;;5.60;63.80;;;;;;5133946;27;20223;-71
2021/03/24 07:12:27;;;;;;;15.13;8.05;;;6.10;60.70;;;;;;5133800;27;20720;-71
2021/03/24 07:15:24;;;;;;;12.60;7.80;;;6.90;59.70;;;;;;5134056;27;20192;-72
2021/03/24 07:18:35;;;;;;;8.68;6.00;;;7.70;58.30;;;;;;5152553;27;20613;-72
2021/03/24 07:21:53;;;;;;;8.23;5.30;;;8.90;57.80;;;;;;5151015;27;20556;-72
2021/03/24 07:24:55;;;;;;;9.27;5.53;;;10.30;55.50;;;;;;5143563;27;20195;-72
2021/03/24 07:27:41;;;;;;;10.25;6.05;;;11.90;51.00;;;;;;5148591;27;20247;-73
2021/03/24 07:30:22;;;;;;;8.48;5.60;;;13.50;47.50;;;;;;5140764;27;20219;-72
2021/03/24 07:32:54;;;;;;;9.07;5.95;;;15.70;42.70;;;;;;5147115;27;20195;-72
2021/03/24 07:35:37;;;;;;;11.43;7.45;;;17.70;37.00;;;;;;5137411;27;20211;-72
2021/03/24 07:38:37;;;;;;;8.75;5.57;;;19.40;34.80;;;;;;5144508;27;20198;-72
2021/03/24 07:41:58;;;;;;;7.13;6.37;;;21.30;32.20;;;;;;5140460;27;20271;-73
2021/03/24 07:44:56;;;;;;;8.17;5.97;;;23.40;27.90;;;;;;5144678;27;20477;-73
2021/03/24 07:47:41;;;;;;;8.30;6.43;;;24.90;25.30;;;;;;5148251;27;20436;-73
2021/03/24 07:50:19;;;;;;;8.37;5.63;;;26.30;24.40;;;;;;5142189;27;20522;-73
2021/03/24 07:53:05;;;;;;;6.80;5.30;;;27.50;21.90;;;;;;5145869;27;20812;-73
2021/03/24 07:55:41;;;;;;;7.83;3.97;;;28.40;20.40;;;;;;5146859;27;20432;-73
2021/03/24 07:58:41;;;;;;;6.27;4.57;;;29.30;19.90;;;;;;5146870;27;20496;-73
2021/03/24 08:01:24;;;;;;;6.00;4.23;;;30.30;18.90;;;;;;5143389;27;20444;-76
2021/03/24 08:04:05;;;;;;;4.60;3.53;;;31.10;17.00;;;;;;5143147;27;20902;-73
2021/03/24 08:06:50;;;;;;;7.97;5.37;;;31.40;15.90;;;;;;5150282;27;20445;-73
2021/03/24 08:09:30;;;;;;;5.90;4.50;;;32.00;15.70;;;;;;5150089;27;20828;-74
2021/03/24 08:12:24;;;;;;;6.53;4.90;;;32.80;14.80;;;;;;5150793;27;20436;-74
2021/03/24 08:15:23;;;;;;;7.20;4.10;;;33.20;13.60;;;;;;5145445;27;20451;-74
2021/03/24 08:18:36;;;;;;;7.10;3.93;;;33.50;14.80;;;;;;5147206;27;20436;-74
2021/03/24 08:21:11;;;;;;;11.47;4.50;;;34.50;14.10;;;;;;5126718;27;20465;-74
2021/03/24 08:24:10;;;;;;;5.20;4.60;;;35.40;13.10;;;;;;5144598;27;20444;-72
2021/03/24 08:26:45;;;;;;;8.90;4.83;;;36.40;12.90;;;;;;5126832;27;20442;-72
2021/03/24 08:29:21;;;;;;;6.30;4.30;;;37.10;12.10;;;;;;5144427;27;20475;-72
2021/03/24 08:32:10;;;;;;;7.53;6.10;;;37.50;12.20;;;;;;5141446;27;20436;-72
2021/03/24 08:35:28;;;;;;;5.17;3.73;;;38.10;11.50;;;;;;5137836;27;20464;-72
2021/03/24 08:38:21;;;;;;;3.83;3.27;;;38.70;10.70;;;;;;5144201;27;20457;-71
2021/03/24 08:41:25;;;;;;;4.70;4.20;;;39.10;10.70;;;;;;5149527;27;20434;-71
2021/03/24 08:44:02;;;;;;;6.87;4.33;;;39.50;9.80;;;;;;5142796;27;20464;-72
2021/03/24 08:46:35;;;;;;;6.30;4.83;;;40.00;10.10;;;;;;5146030;27;20490;-72
2021/03/24 08:49:15;;;;;;;5.77;4.67;;;40.60;9.00;;;;;;5150877;27;20460;-71
2021/03/24 08:52:03;;;;;;;5.73;4.70;;;40.80;9.80;;;;;;5144867;27;20934;-72
2021/03/24 08:55:12;;;;;;;4.57;3.60;;;40.80;8.80;;;;;;5149111;27;20531;-71
2021/03/24 08:58:07;;;;;;;4.63;3.70;;;41.00;8.60;;;;;;5152656;27;20474;-71
2021/03/24 09:00:56;;;;;;;4.97;3.83;;;41.40;8.50;;;;;;5145176;27;20934;-72
2021/03/24 09:03:46;;;;;;;6.57;4.50;;;42.10;8.20;;;;;;5147560;27;20789;-72
2021/03/24 09:06:21;;;;;;;5.87;4.40;;;42.90;8.10;;;;;;5138631;27;20500;-72
2021/03/24 09:08:56;;;;;;;6.40;5.27;;;43.40;7.60;;;;;;5147957;27;20799;-72
2021/03/24 09:11:39;;;;;;;6.13;4.30;;;43.90;7.30;;;;;;5150095;27;20446;-71
2021/03/24 09:14:16;;;;;;;5.73;3.67;;;44.10;7.30;;;;;;5151798;27;20439;-71
2021/03/24 09:17:15;;;;;;;5.30;4.80;;;44.20;7.20;;;;;;5148927;27;20438;-72
2021/03/24 09:20:14;;;;;;;7.37;4.83;;;44.40;6.80;;;;;;5143239;27;20535;-72
2021/03/24 09:22:54;;;;;;;9.30;6.20;;;44.90;6.70;;;;;;5150564;27;20439;-72
2021/03/24 09:25:33;;;;;;;6.67;5.60;;;45.20;6.50;;;;;;5143074;27;21070;-71
2021/03/24 09:28:39;;;;;;;6.57;5.60;;;45.50;6.80;;;;;;5154753;27;20443;-72
2021/03/24 09:31:32;;;;;;;8.37;7.17;;;45.90;6.20;;;;;;5151239;27;20444;-72
2021/03/24 09:34:03;;;;;;;8.33;7.40;;;46.00;5.90;;;;;;5146779;27;20436;-72
2021/03/24 09:37:05;;;;;;;10.37;9.37;;;46.10;5.70;;;;;;5144445;27;20432;-72
2021/03/24 09:39:42;;;;;;;7.90;7.10;;;46.10;5.80;;;;;;5144568;27;20544;-72
2021/03/24 09:42:27;;;;;;;7.80;6.93;;;46.80;6.50;;;;;;5152946;27;20488;-72
2021/03/24 09:45:06;;;;;;;6.63;6.03;;;47.70;5.50;;;;;;5150208;27;20455;-73
2021/03/24 09:47:47;;;;;;;8.83;7.23;;;48.30;5.60;;;;;;5151086;27;20511;-72
2021/03/24 09:50:30;;;;;;;7.10;6.40;;;48.70;5.50;;;;;;5149550;27;20966;-72
2021/03/24 09:53:00;;;;;;;10.00;7.40;;;48.90;4.70;;;;;;5149028;27;20440;-72
2021/03/24 09:55:35;;;;;;;7.13;6.43;;;48.70;5.00;;;;;;5145564;27;20434;-72
2021/03/24 09:58:38;;;;;;;8.57;6.33;;;48.70;4.80;;;;;;5155329;27;20444;-72
2021/03/24 10:01:30;;;;;;;6.77;5.87;;;48.50;4.40;;;;;;5150654;27;20488;-73
2021/03/24 10:04:06;;;;;;;7.90;6.60;;;48.30;5.00;;;;;;5148680;27;20436;-72
2021/03/24 10:06:44;;;;;;;6.10;5.50;;;48.70;4.70;;;;;;5143586;27;20802;-72
2021/03/24 10:09:20;;;;;;;7.60;6.77;;;48.90;4.90;;;;;;5149933;27;20475;-73
2021/03/24 10:11:59;;;;;;;8.10;6.50;;;48.90;4.40;;;;;;5141514;27;20554;-72
2021/03/24 10:14:35;;;;;;;7.53;5.60;;;48.90;5.00;;;;;;5130006;27;20476;-72
2021/03/24 10:17:07;;;;;;;7.60;6.73;;;49.00;4.80;;;;;;5131605;27;20438;-73
2021/03/24 10:19:37;;;;;;;8.77;6.63;;;49.40;4.60;;;;;;5149417;27;20432;-73
2021/03/24 10:22:11;;;;;;;7.30;6.60;;;49.50;4.80;;;;;;5136791;27;20448;-73
2021/03/24 10:24:45;;;;;;;7.43;6.73;;;50.10;4.70;;;;;;5133799;27;20481;-73
2021/03/24 10:27:16;;;;;;;11.30;6.83;;;50.40;4.60;;;;;;5134947;27;20441;-73
2021/03/24 10:29:48;;;;;;;8.70;7.33;;;50.60;4.60;;;;;;5153905;27;20523;-72
2021/03/24 10:32:32;;;;;;;9.67;7.20;;;51.00;4.10;;;;;;5150890;27;20441;-73
2021/03/24 10:35:06;;;;;;;7.50;6.80;;;51.20;4.70;;;;;;5126695;27;20516;-73
2021/03/24 10:37:44;;;;;;;8.33;6.77;;;51.40;3.80;;;;;;5129419;27;20428;-72
2021/03/24 10:40:19;;;;;;;7.97;7.17;;;51.40;3.70;;;;;;5122390;27;20445;-73
2021/03/24 10:42:54;;;;;;;7.70;6.90;;;51.30;3.90;;;;;;5131406;27;20935;-73
2021/03/24 10:45:27;;;;;;;7.30;6.37;;;51.10;4.10;;;;;;5144807;27;20475;-73
2021/03/24 10:47:59;;;;;;;7.30;6.70;;;51.30;4.00;;;;;;5153960;27;20444;-73
2021/03/24 10:50:36;;;;;;;7.93;7.23;;;51.60;3.80;;;;;;5142657;27;20564;-73
2021/03/24 10:53:09;;;;;;;9.80;6.77;;;51.80;3.80;;;;;;5154320;27;20435;-73
2021/03/24 10:55:41;;;;;;;7.80;7.00;;;51.60;3.60;;;;;;5149175;27;20450;-73
2021/03/24 10:58:42;;;;;;;7.27;5.90;;;51.30;3.70;;;;;;5143802;27;20451;-72
2021/03/24 11:01:22;;;;;;;7.40;6.47;;;51.40;4.00;;;;;;5144074;27;20444;-73
2021/03/24 11:04:04;;;;;;;7.73;6.93;;;51.60;4.10;;;;;;5144840;27;20479;-73
2021/03/24 11:06:37;;;;;;;7.23;6.53;;;51.90;3.80;;;;;;5154422;27;20444;-73
2021/03/24 11:09:09;;;;;;;7.67;6.93;;;52.30;4.00;;;;;;5142105;27;20559;-73
2021/03/24 11:11:47;;;;;;;7.47;6.77;;;52.60;3.70;;;;;;5133854;27;20837;-73
2021/03/24 11:14:18;;;;;;;8.23;7.30;;;52.80;3.40;;;;;;5133869;27;20498;-72
2021/03/24 11:16:49;;;;;;;6.70;6.00;;;52.50;3.50;;;;;;5132668;27;20437;-73
2021/03/24 11:19:23;;;;;;;8.40;6.63;;;52.80;3.30;;;;;;5133485;27;20438;-73
2021/03/24 11:22:07;;;;;;;8.37;7.57;;;52.80;3.10;;;;;;5133172;27;20443;-73
2021/03/24 11:24:48;;;;;;;7.97;6.03;;;52.70;3.10;;;;;;5134346;27;20465;-73
2021/03/24 11:27:40;;;;;;;6.63;5.80;;;52.80;3.60;;;;;;5132682;27;20938;-73
2021/03/24 11:30:45;;;;;;;6.83;5.97;;;52.90;3.50;;;;;;5133646;27;20473;-74
2021/03/24 11:33:21;;;;;;;6.50;5.77;;;53.20;3.30;;;;;;5132207;27;20538;-74
2021/03/24 11:35:58;;;;;;;6.83;5.63;;;53.50;3.40;;;;;;5133860;27;20437;-73
2021/03/24 11:38:45;;;;;;;6.20;5.60;;;53.70;3.10;;;;;;5133275;27;20441;-73
2021/03/24 11:41:14;;;;;;;7.47;6.17;;;53.90;3.10;;;;;;5118949;27;20437;-73
2021/03/24 11:43:44;;;;;;;6.23;5.60;;;53.90;2.90;;;;;;5126191;27;20448;-73
2021/03/24 11:46:19;;;;;;;5.40;4.80;;;53.50;2.70;;;;;;5131522;27;20784;-73
2021/03/24 11:49:01;;;;;;;5.80;5.20;;;53.20;3.20;;;;;;5132388;27;20467;-73
2021/03/24 11:51:39;;;;;;;6.30;5.60;;;52.70;3.20;;;;;;5133348;27;20763;-73
2021/03/24 11:54:20;;;;;;;6.20;5.60;;;52.70;3.30;;;;;;5131059;27;20425;-73
2021/03/24 11:57:07;;;;;;;6.60;6.00;;;52.60;3.30;;;;;;5131991;27;20494;-73
2021/03/24 11:59:46;;;;;;;6.13;5.53;;;52.40;3.20;;;;;;5111699;28;20453;-73
2021/03/24 12:02:21;;;;;;;7.60;6.10;;;51.70;2.90;;;;;;5129810;28;20437;-73
2021/03/24 12:05:08;;;;;;;7.60;6.30;;;51.10;3.10;;;;;;5132454;27;20768;-73
2021/03/24 12:07:50;;;;;;;5.47;4.30;;;51.20;3.40;;;;;;5133066;27;21048;-73
2021/03/24 12:10:31;;;;;;;5.83;4.10;;;51.40;3.90;;;;;;5132349;27;20480;-73
2021/03/24 12:13:03;;;;;;;5.70;4.87;;;51.60;3.40;;;;;;5133870;28;21011;-73
2021/03/24 12:15:33;;;;;;;6.53;5.93;;;51.60;3.90;;;;;;5132142;27;20433;-73
2021/03/24 12:18:09;;;;;;;6.10;4.90;;;51.60;3.60;;;;;;5132489;27;20464;-72
2021/03/24 12:21:04;;;;;;;4.87;4.13;;;51.40;3.60;;;;;;5136700;27;20429;-73
2021/03/24 12:23:33;;;;;;;7.10;4.47;;;51.50;3.30;;;;;;5137646;27;20983;-72
2021/03/24 12:26:02;;;;;;;5.20;4.40;;;51.40;2.90;;;;;;5136144;27;20445;-73
2021/03/24 12:28:36;;;;;;;6.53;5.37;;;51.00;3.40;;;;;;5116955;28;20431;-73
2021/03/24 12:31:09;;;;;;;5.57;4.10;;;50.70;3.40;;;;;;5128775;27;20445;-73
2021/03/24 12:33:47;;;;;;;4.87;4.47;;;50.60;4.20;;;;;;5136424;27;20432;-73
2021/03/24 12:36:19;;;;;;;3.40;2.80;;;50.70;3.60;;;;;;5135060;27;20440;-73
2021/03/24 12:39:02;;;;;;;5.27;3.40;;;50.60;2.50;;;;;;5136232;27;20436;-72
2021/03/24 12:41:33;;;;;;;4.10;3.07;;;50.00;2.40;;;;;;5136349;27;20437;-73
2021/03/24 12:44:15;;;;;;;3.83;3.10;;;49.60;3.00;;;;;;5134011;27;20465;-72
2021/03/24 12:46:50;;;;;;;5.13;3.47;;;49.20;3.20;;;;;;5136224;27;20539;-73
2021/03/24 12:49:19;;;;;;;5.60;3.90;;;48.60;3.30;;;;;;5136651;27;20523;-72
2021/03/24 12:51:54;;;;;;;4.60;3.90;;;48.30;3.30;;;;;;5136404;27;20494;-72
2021/03/24 12:54:22;;;;;;;3.83;2.93;;;48.00;3.70;;;;;;5137176;27;20458;-72
2021/03/24 12:57:14;;;;;;;4.03;2.73;;;47.70;3.10;;;;;;5136339;27;20437;-72
2021/03/24 13:00:07;;;;;;;4.53;2.57;;;46.90;3.00;;;;;;5129489;27;20445;-72
2021/03/24 13:03:06;;;;;;;4.53;2.37;;;46.00;2.90;;;;;;5117406;27;20774;-72
2021/03/24 13:05:40;;;;;;;3.90;2.60;;;44.20;3.20;;;;;;5136641;27;20445;-72
2021/03/24 13:08:15;;;;;;;4.00;2.53;;;42.30;3.90;;;;;;5136161;27;20451;-72
2021/03/24 13:10:50;;;;;;;4.03;2.40;;;40.00;3.60;;;;;;5136539;27;20482;-72
2021/03/24 13:13:29;;;;;;;3.70;2.70;;;37.80;4.40;;;;;;5116195;28;20806;-72
2021/03/24 13:16:02;;;;;;;4.20;2.70;;;36.10;5.30;;;;;;5130702;27;20437;-71
2021/03/24 13:18:37;;;;;;;4.80;2.40;;;34.50;5.60;;;;;;5136019;27;20440;-72
2021/03/24 13:21:32;;;;;;;4.40;2.73;;;33.20;6.50;;;;;;5136434;27;20444;-72
2021/03/24 13:24:18;;;;;;;4.17;3.00;;;32.10;7.30;;;;;;5133498;27;20495;-73
2021/03/24 13:26:46;;;;;;;5.83;2.90;;;30.90;7.40;;;;;;5136028;27;20508;-73
2021/03/24 13:29:17;;;;;;;4.57;3.03;;;29.80;8.40;;;;;;5135877;27;20868;-73
2021/03/24 13:31:50;;;;;;;6.50;3.00;;;28.80;9.10;;;;;;5133828;27;20437;-73
2021/03/24 13:34:45;;;;;;;6.70;3.93;;;27.40;9.70;;;;;;5136101;27;20437;-73
2021/03/24 13:37:19;;;;;;;4.30;2.50;;;25.90;10.90;;;;;;5121707;27;20935;-73
2021/03/24 13:39:51;;;;;;;3.50;2.40;;;24.80;11.70;;;;;;5115300;28;20431;-73
2021/03/24 13:42:31;;;;;;;4.30;2.50;;;24.00;12.20;;;;;;5115591;27;20525;-73
2021/03/24 13:45:16;;;;;;;4.00;2.63;;;22.90;13.40;;;;;;5134706;27;20433;-72
2021/03/24 13:47:56;;;;;;;5.40;3.67;;;21.80;13.70;;;;;;5129240;27;20444;-73
2021/03/24 13:50:28;;;;;;;4.13;2.47;;;21.40;14.60;;;;;;5135708;27;20508;-72
2021/03/24 13:52:58;;;;;;;5.77;2.73;;;21.20;15.10;;;;;;5135383;27;20437;-72
2021/03/24 13:55:49;;;;;;;6.97;2.30;;;20.70;15.00;;;;;;5135922;27;20518;-72
2021/03/24 13:58:52;;;;;;;5.03;2.60;;;20.30;16.10;;;;;;5135436;27;20471;-72